Time;durP1;ratioP1;P1;durP2;ratioP2;P2;SDS_P1;SDS_P2;PMS_P1;PMS_P2;Temp;Humidity;BMP_temperature;BMP_pressure;BME280_temperature;BME280_humidity;BME280_pressure;Samples;Min_cycle;Max_cycle;Signal;HPM_P1;HPM_P2
2023/07/27 00:00:46;;;;;;;3.83;2.40;;;;;;;14.52;100.00;97989.34;4995537;28;20205;-79
2023/07/27 00:03:12;;;;;;;2.40;2.20;;;;;;;14.43;100.00;97992.69;4996381;28;20203;-79
2023/07/27 00:05:39;;;;;;;4.27;2.20;;;;;;;14.46;100.00;97994.84;4996441;28;20718;-80
2023/07/27 00:08:05;;;;;;;2.83;2.50;;;;;;;14.49;100.00;97994.38;4994905;28;20202;-80
2023/07/27 00:10:31;;;;;;;4.33;2.20;;;;;;;14.45;100.00;97994.06;4994836;28;20211;-80
2023/07/27 00:12:58;;;;;;;3.43;2.20;;;;;;;14.46;100.00;97989.50;4996094;28;20704;-80
2023/07/27 00:15:24;;;;;;;3.07;2.40;;;;;;;14.45;100.00;97993.25;4996457;28;20207;-80
2023/07/27 00:17:51;;;;;;;3.23;2.30;;;;;;;14.45;100.00;97991.41;4993860;28;20651;-80
2023/07/27 00:20:17;;;;;;;2.83;2.50;;;;;;;14.43;100.00;97987.34;4996134;28;20254;-80
2023/07/27 00:22:43;;;;;;;2.70;2.37;;;;;;;14.44;100.00;97981.75;4995419;28;20203;-80
2023/07/27 00:25:10;;;;;;;4.73;2.50;;;;;;;14.42;100.00;97978.50;4995542;28;20258;-80
2023/07/27 00:27:36;;;;;;;2.53;2.33;;;;;;;14.44;100.00;97972.91;4992505;28;20590;-80
2023/07/27 00:30:03;;;;;;;4.17;2.60;;;;;;;14.40;100.00;97971.78;4995480;28;20291;-79
2023/07/27 00:32:29;;;;;;;2.40;2.20;;;;;;;14.37;100.00;97973.06;4996243;28;20214;-80
2023/07/27 00:34:56;;;;;;;2.47;2.27;;;;;;;14.47;100.00;97967.88;4995932;28;20204;-80
2023/07/27 00:37:22;;;;;;;2.93;2.40;;;;;;;14.43;100.00;97965.94;4995000;28;20199;-80
2023/07/27 00:39:49;;;;;;;3.50;2.60;;;;;;;14.40;100.00;97969.91;4991375;28;20724;-80
2023/07/27 00:42:15;;;;;;;4.27;2.50;;;;;;;14.40;100.00;97969.91;4989382;28;20203;-80
2023/07/27 00:44:41;;;;;;;3.73;2.60;;;;;;;14.39;100.00;97962.94;4988788;28;20214;-79
2023/07/27 00:47:08;;;;;;;3.03;2.77;;;;;;;14.42;100.00;97967.78;4994723;28;20226;-79
2023/07/27 00:49:35;;;;;;;2.40;2.20;;;;;;;14.39;100.00;97962.13;4999125;28;20277;-80
2023/07/27 00:52:06;;;;;;;2.60;2.40;;;;;;;14.41;100.00;97955.50;4998477;28;20209;-80
2023/07/27 00:54:33;;;;;;;3.10;2.60;;;;;;;14.41;100.00;97954.66;4998123;28;20286;-80
2023/07/27 00:57:00;;;;;;;2.50;2.30;;;;;;;14.34;100.00;97952.16;4995420;28;20207;-80
2023/07/27 00:59:26;;;;;;;4.10;2.43;;;;;;;14.33;100.00;97950.53;4994390;28;20710;-79
2023/07/27 01:01:53;;;;;;;3.07;2.30;;;;;;;14.35;100.00;97943.09;4999488;28;20207;-80
2023/07/27 01:04:20;;;;;;;3.93;2.30;;;;;;;14.31;100.00;97947.31;4999137;28;20290;-80
2023/07/27 01:06:46;;;;;;;2.90;2.20;;;;;;;14.21;100.00;97936.47;4998707;28;20238;-80
2023/07/27 01:09:13;;;;;;;2.37;2.10;;;;;;;14.22;100.00;97940.75;4992485;28;20232;-79
2023/07/27 01:11:48;;;;;;;3.83;2.70;;;;;;;14.17;100.00;97932.63;4999260;28;20585;-80
2023/07/27 01:14:34;;;;;;;2.90;2.60;;;;;;;14.11;100.00;97930.91;4999375;28;20201;-80
2023/07/27 01:17:07;;;;;;;2.70;2.50;;;;;;;14.12;100.00;97921.88;4999444;28;20267;-80
2023/07/27 01:19:54;;;;;;;3.77;2.30;;;;;;;14.13;100.00;97928.00;4998856;28;20222;-80
2023/07/27 01:22:33;;;;;;;3.30;2.50;;;;;;;14.16;100.00;97922.97;4999608;28;20219;-80
2023/07/27 01:25:02;;;;;;;2.93;2.63;;;;;;;14.17;100.00;97924.63;4999769;28;20213;-80
2023/07/27 01:27:38;;;;;;;3.33;2.53;;;;;;;14.17;100.00;97919.28;5000009;28;20227;-80
2023/07/27 01:30:36;;;;;;;3.13;2.83;;;;;;;14.07;100.00;97908.41;4996038;28;20222;-80
2023/07/27 01:33:09;;;;;;;4.20;2.83;;;;;;;14.07;100.00;97908.41;4997851;28;20686;-80
2023/07/27 01:35:50;;;;;;;3.17;2.40;;;;;;;14.04;100.00;97903.56;4997583;28;20195;-80
2023/07/27 01:38:17;;;;;;;3.20;2.50;;;;;;;14.06;100.00;97906.00;4998471;28;20631;-80
2023/07/27 01:40:46;;;;;;;3.37;2.30;;;;;;;14.07;100.00;97897.72;4998609;28;20217;-80
2023/07/27 01:43:13;;;;;;;2.47;2.27;;;;;;;14.10;100.00;97897.22;4997896;28;20231;-80
2023/07/27 01:45:40;;;;;;;2.97;2.60;;;;;;;14.06;100.00;97893.41;4997559;28;20207;-80
2023/07/27 01:48:09;;;;;;;3.23;2.53;;;;;;;14.06;100.00;97890.75;4998097;28;20234;-80
2023/07/27 01:50:36;;;;;;;4.27;2.77;;;;;;;14.06;100.00;97888.06;4997848;28;20608;-80
2023/07/27 01:53:03;;;;;;;35.23;8.63;;;;;;;13.95;100.00;97893.50;4998890;28;20207;-80
2023/07/27 01:55:30;;;;;;;2.70;2.50;;;;;;;13.96;100.00;97881.75;4995782;28;20211;-80
2023/07/27 01:58:00;;;;;;;3.03;2.60;;;;;;;13.95;100.00;97886.31;4995089;28;20200;-79
2023/07/27 02:00:29;;;;;;;2.57;2.23;;;;;;;13.87;100.00;97885.91;4996990;28;20737;-79
2023/07/27 02:02:56;;;;;;;2.90;2.43;;;;;;;13.86;100.00;97882.44;4996842;28;20207;-79
2023/07/27 02:05:23;;;;;;;2.97;2.37;;;;;;;13.81;100.00;97874.34;4997795;28;20210;-79
2023/07/27 02:07:49;;;;;;;2.90;2.60;;;;;;;13.85;100.00;97878.16;4997262;28;20241;-79
2023/07/27 02:10:19;;;;;;;2.50;2.30;;;;;;;13.89;100.00;97871.25;4998149;28;20227;-80
2023/07/27 02:12:55;;;;;;;3.10;2.23;;;;;;;13.92;100.00;97869.94;4998166;28;20207;-80
2023/07/27 02:15:25;;;;;;;3.63;2.13;;;;;;;13.94;100.00;97867.84;4997828;28;20635;-80
2023/07/27 02:17:58;;;;;;;2.23;2.00;;;;;;;13.95;100.00;97867.59;4996941;28;20200;-80
2023/07/27 02:20:28;;;;;;;2.40;2.20;;;;;;;13.94;100.00;97860.66;4996662;28;20207;-80
2023/07/27 02:22:56;;;;;;;3.20;2.63;;;;;;;13.95;100.00;97853.41;4998224;28;20254;-80
2023/07/27 02:25:22;;;;;;;2.93;2.40;;;;;;;13.92;100.00;97865.41;4998600;28;20203;-80
2023/07/27 02:27:49;;;;;;;3.73;2.53;;;;;;;13.79;100.00;97857.72;4996296;28;20257;-80
2023/07/27 02:30:15;;;;;;;3.10;2.40;;;;;;;13.81;100.00;97855.63;4997553;28;20228;-80
2023/07/27 02:32:42;;;;;;;3.63;3.33;;;;;;;13.75;100.00;97856.59;4997035;28;20234;-80
2023/07/27 02:35:08;;;;;;;4.10;2.50;;;;;;;13.70;100.00;97853.06;4997779;28;20219;-79
2023/07/27 02:37:35;;;;;;;3.43;2.43;;;;;;;13.71;100.00;97849.31;4996656;28;20580;-79
2023/07/27 02:40:01;;;;;;;4.70;2.50;;;;;;;13.78;100.00;97841.94;4996914;28;20244;-80
2023/07/27 02:42:27;;;;;;;3.93;2.50;;;;;;;13.78;100.00;97839.25;4997515;28;20218;-80
2023/07/27 02:44:54;;;;;;;2.73;2.33;;;;;;;13.83;100.00;97845.50;4997013;28;20200;-80
2023/07/27 02:47:20;;;;;;;2.93;2.47;;;;;;;13.86;100.00;97836.19;4997544;28;20231;-80
2023/07/27 02:49:47;;;;;;;2.80;2.20;;;;;;;13.94;100.00;97841.94;4996834;28;20321;-80
2023/07/27 02:52:13;;;;;;;3.70;2.57;;;;;;;13.94;100.00;97836.59;4997139;28;20207;-80
2023/07/27 02:54:39;;;;;;;3.57;2.17;;;;;;;13.93;100.00;97837.63;4995355;28;20221;-80
2023/07/27 02:57:06;;;;;;;5.20;2.70;;;;;;;13.97;100.00;97836.09;4997158;28;20203;-80
2023/07/27 02:59:32;;;;;;;2.67;2.47;;;;;;;14.07;100.00;97833.56;4997526;28;20227;-80
2023/07/27 03:01:58;;;;;;;2.90;2.30;;;;;;;14.08;100.00;97831.69;4997158;28;20213;-80
2023/07/27 03:04:25;;;;;;;3.47;2.10;;;;;;;14.16;100.00;97831.28;4995768;28;20213;-79
2023/07/27 03:06:51;;;;;;;3.00;1.73;;;;;;;14.23;100.00;97830.06;4996423;28;20241;-80
2023/07/27 03:09:18;;;;;;;3.87;1.90;;;;;;;14.29;100.00;97830.97;4995889;28;20574;-79
2023/07/27 03:11:44;;;;;;;2.90;2.00;;;;;;;14.34;100.00;97831.03;4996883;28;20646;-80
2023/07/27 03:14:10;;;;;;;2.47;1.93;;;;;;;14.28;100.00;97829.31;4996638;28;20210;-80
2023/07/27 03:16:37;;;;;;;2.20;2.00;;;;;;;14.24;100.00;97826.34;4996996;28;20667;-80
2023/07/27 03:19:03;;;;;;;5.53;2.50;;;;;;;14.22;100.00;97831.13;4985391;28;20231;-80
2023/07/27 03:21:30;;;;;;;3.13;2.10;;;;;;;14.20;100.00;97835.91;4988389;28;20207;-79
2023/07/27 03:23:56;;;;;;;6.90;2.57;;;;;;;14.14;100.00;97828.84;4996215;28;20297;-80
2023/07/27 03:26:22;;;;;;;4.10;2.23;;;;;;;14.17;100.00;97819.53;4996463;28;20207;-80
2023/07/27 03:28:49;;;;;;;3.17;2.80;;;;;;;14.17;100.00;97823.03;4995648;28;20641;-79
2023/07/27 03:31:25;;;;;;;2.60;2.40;;;;;;;14.18;100.00;97819.28;4996926;28;20221;-79
2023/07/27 03:33:52;;;;;;;4.07;2.70;;;;;;;14.25;100.00;97824.50;4996979;28;20226;-80
2023/07/27 03:36:20;;;;;;;2.47;2.27;;;;;;;14.27;100.00;97825.84;4996729;28;20207;-80
2023/07/27 03:38:47;;;;;;;4.20;2.90;;;;;;;14.24;100.00;97822.88;4995626;28;20584;-80
2023/07/27 03:41:14;;;;;;;2.47;2.00;;;;;;;14.36;100.00;97812.84;4996028;28;20210;-80
2023/07/27 03:43:41;;;;;;;3.10;2.07;;;;;;;14.45;100.00;97814.84;4996864;28;20670;-80
2023/07/27 03:46:07;;;;;;;3.53;2.00;;;;;;;14.48;100.00;97816.22;4996885;28;20211;-80
2023/07/27 03:48:33;;;;;;;2.87;2.23;;;;;;;14.60;100.00;97809.69;4994909;28;20237;-80
2023/07/27 03:51:01;;;;;;;3.60;2.17;;;;;;;14.61;100.00;97808.59;4994918;28;20650;-80
2023/07/27 03:53:28;;;;;;;2.40;2.00;;;;;;;14.64;100.00;97805.44;4996365;28;20258;-80
2023/07/27 03:55:55;;;;;;;3.43;1.80;;;;;;;14.61;100.00;97805.94;4996902;28;20207;-80
2023/07/27 03:58:21;;;;;;;2.77;2.27;;;;;;;14.61;100.00;97800.59;4997003;28;20231;-80
2023/07/27 04:00:47;;;;;;;3.30;2.30;;;;;;;14.53;100.00;97800.22;4995792;28;20563;-80
2023/07/27 04:03:14;;;;;;;3.20;2.20;;;;;;;14.51;100.00;97802.38;4995549;28;20203;-80
2023/07/27 04:05:40;;;;;;;4.23;2.13;;;;;;;14.53;100.00;97795.69;4996363;28;20217;-80
2023/07/27 04:08:06;;;;;;;2.50;2.30;;;;;;;14.50;100.00;97798.88;4991571;28;20227;-80
2023/07/27 04:10:33;;;;;;;2.60;1.83;;;;;;;14.48;100.00;97789.47;4995994;28;20213;-81
2023/07/27 04:12:59;;;;;;;2.67;2.33;;;;;;;14.40;100.00;97781.88;4996379;28;20279;-80
2023/07/27 04:15:26;;;;;;;2.63;2.27;;;;;;;14.38;100.00;97779.44;4995549;28;20207;-80
2023/07/27 04:17:52;;;;;;;3.00;2.23;;;;;;;14.44;100.00;97775.81;4996250;28;20279;-80
2023/07/27 04:20:18;;;;;;;2.47;2.27;;;;;;;14.46;100.00;97784.38;4997689;28;20207;-81
2023/07/27 04:22:45;;;;;;;3.37;2.50;;;;;;;14.53;100.00;97782.31;5000721;28;20690;-81
2023/07/27 04:25:11;;;;;;;3.30;2.17;;;;;;;14.61;100.00;97784.53;5000102;28;20682;-80
2023/07/27 04:27:37;;;;;;;4.03;2.50;;;;;;;14.57;100.00;97780.75;4997293;28;20600;-79
2023/07/27 04:30:04;;;;;;;2.67;2.20;;;;;;;14.63;100.00;97782.44;4997025;28;20223;-80
2023/07/27 04:32:31;;;;;;;3.87;2.13;;;;;;;14.69;100.00;97777.91;4990843;28;20670;-79
2023/07/27 04:34:57;;;;;;;60.23;6.40;;;;;;;14.74;100.00;97784.16;4999868;28;20674;-80
2023/07/27 04:37:23;;;;;;;2.27;2.07;;;;;;;14.81;100.00;97776.75;5000513;28;20623;-80
2023/07/27 04:39:50;;;;;;;2.67;2.17;;;;;;;14.75;100.00;97775.06;4999614;28;20231;-79
2023/07/27 04:42:16;;;;;;;3.00;1.97;;;;;;;14.80;100.00;97783.16;4999378;28;20203;-80
2023/07/27 04:44:42;;;;;;;2.07;1.87;;;;;;;14.81;100.00;97787.44;4999322;28;20233;-80
2023/07/27 04:47:09;;;;;;;2.40;2.07;;;;;;;14.84;100.00;97776.22;4999886;28;20233;-80
2023/07/27 04:49:35;;;;;;;3.60;2.03;;;;;;;14.93;100.00;97774.69;4998177;28;20230;-80
2023/07/27 04:52:02;;;;;;;2.20;2.00;;;;;;;15.02;100.00;97775.84;4994770;28;20207;-80
2023/07/27 04:54:28;;;;;;;2.10;1.90;;;;;;;14.99;100.00;97779.06;4996025;28;20228;-80
2023/07/27 04:56:55;;;;;;;3.67;1.80;;;;;;;15.10;100.00;97778.09;4997263;28;20231;-79
2023/07/27 04:59:22;;;;;;;2.60;1.90;;;;;;;15.10;100.00;97770.06;4995774;28;20231;-80
2023/07/27 05:01:48;;;;;;;2.70;2.13;;;;;;;15.11;100.00;97776.22;4995943;28;20203;-80
2023/07/27 05:04:14;;;;;;;4.63;1.90;;;;;;;15.11;100.00;97776.22;4996076;28;20214;-80
2023/07/27 05:06:41;;;;;;;2.30;2.10;;;;;;;15.07;100.00;97783.16;4995648;28;20218;-80
2023/07/27 05:09:07;;;;;;;3.00;2.07;;;;;;;15.10;100.00;97772.72;4996287;28;20234;-80
2023/07/27 05:11:35;;;;;;;2.90;2.07;;;;;;;15.12;100.00;97773.31;4997247;28;20219;-79
2023/07/27 05:14:01;;;;;;;3.47;2.30;;;;;;;14.99;100.00;97779.06;4998785;28;20627;-80
2023/07/27 05:16:28;;;;;;;3.93;2.60;;;;;;;15.02;100.00;97780.44;4999899;28;20559;-79
2023/07/27 05:18:57;;;;;;;3.00;2.30;;;;;;;15.08;100.00;97777.53;4999349;28;20223;-80
2023/07/27 05:21:23;;;;;;;2.77;2.33;;;;;;;15.16;100.00;97770.91;4999337;28;20292;-79
2023/07/27 05:23:50;;;;;;;3.00;2.20;;;;;;;15.17;100.00;97777.88;4999093;28;20214;-80
2023/07/27 05:26:16;;;;;;;2.50;2.30;;;;;;;15.24;100.00;97776.59;4999206;28;20215;-80
2023/07/27 05:28:43;;;;;;;2.27;2.07;;;;;;;15.22;100.00;97776.06;4999340;28;20699;-80
2023/07/27 05:31:09;;;;;;;3.73;2.10;;;;;;;15.29;100.00;97773.97;4998083;28;20239;-80
2023/07/27 05:33:35;;;;;;;2.33;2.13;;;;;;;15.38;100.00;97777.81;4999196;28;20290;-80
2023/07/27 05:36:02;;;;;;;3.50;2.10;;;;;;;15.52;100.00;97765.59;4998408;28;20566;-80
2023/07/27 05:38:28;;;;;;;2.07;1.87;;;;;;;15.61;100.00;97769.41;4999410;28;20317;-80
2023/07/27 05:40:59;;;;;;;3.60;2.50;;;;;;;15.58;100.00;97764.59;4999362;28;20215;-80
2023/07/27 05:43:26;;;;;;;5.03;2.17;;;;;;;15.58;100.00;97761.91;5000264;28;20211;-80
2023/07/27 05:45:52;;;;;;;2.50;2.30;;;;;;;15.57;100.00;97759.50;4999164;28;20692;-80
2023/07/27 05:48:18;;;;;;;3.57;2.13;;;;;;;15.55;100.00;97762.41;4996904;28;20235;-74
2023/07/27 05:50:45;;;;;;;4.17;2.00;;;;;;;15.71;100.00;97753.44;4995830;28;20219;-74
2023/07/27 05:53:11;;;;;;;2.00;1.90;;;;;;;15.73;100.00;97755.81;4996054;28;20223;-74
2023/07/27 05:55:37;;;;;;;2.87;2.10;;;;;;;15.70;100.00;97759.81;4996001;28;20215;-74
2023/07/27 05:58:04;;;;;;;3.00;1.90;;;;;;;15.69;100.00;97760.91;4995450;28;20638;-74
2023/07/27 06:00:30;;;;;;;3.37;1.90;;;;;;;15.72;100.00;97759.56;4995585;28;20748;-75
2023/07/27 06:02:57;;;;;;;2.30;2.10;;;;;;;15.84;100.00;97761.00;4995755;28;20243;-75
2023/07/27 06:05:23;;;;;;;3.50;2.00;;;;;;;15.83;100.00;97754.03;4996146;28;20215;-79
2023/07/27 06:07:49;;;;;;;4.00;2.50;;;;;;;15.89;100.00;97753.00;4998581;28;20231;-80
2023/07/27 06:10:16;;;;;;;3.00;1.93;;;;;;;15.91;100.00;97758.91;4998562;28;20231;-79
2023/07/27 06:12:42;;;;;;;2.50;2.07;;;;;;;15.98;100.00;97762.16;4998302;28;20214;-80
2023/07/27 06:15:09;;;;;;;4.57;2.03;;;;;;;16.04;100.00;97760.31;4998143;28;20732;-80
2023/07/27 06:17:36;;;;;;;3.03;1.80;;;;;;;16.07;100.00;97754.44;4999097;28;20287;-80
2023/07/27 06:20:02;;;;;;;2.23;2.00;;;;;;;16.13;100.00;97764.91;4997876;28;20707;-80
2023/07/27 06:22:29;;;;;;;2.97;1.93;;;;;;;16.17;100.00;97757.97;4999029;28;20630;-81
2023/07/27 06:24:55;;;;;;;2.00;1.90;;;;;;;16.23;100.00;97764.16;4999222;28;20209;-80
2023/07/27 06:27:21;;;;;;;3.57;2.20;;;;;;;16.40;100.00;97762.09;4998205;28;20210;-80
2023/07/27 06:29:48;;;;;;;3.37;2.00;;;;;;;16.46;100.00;97761.88;4997995;28;20235;-80
2023/07/27 06:32:14;;;;;;;3.33;1.90;;;;;;;16.64;100.00;97758.69;4998542;28;20255;-80
2023/07/27 06:34:41;;;;;;;2.60;1.83;;;;;;;16.71;99.73;97755.78;4997684;28;20211;-80
2023/07/27 06:37:07;;;;;;;2.20;2.00;;;;;;;16.79;100.00;97750.69;4997552;28;20230;-81
2023/07/27 06:39:34;;;;;;;1.80;1.70;;;;;;;16.84;100.00;97753.41;4996848;28;20219;-81
2023/07/27 06:42:00;;;;;;;2.77;2.07;;;;;;;16.81;100.00;97750.41;4997203;28;20211;-80
2023/07/27 06:44:27;;;;;;;2.23;2.03;;;;;;;16.83;100.00;97748.28;4997658;28;20209;-80
2023/07/27 06:46:53;;;;;;;2.03;1.90;;;;;;;16.80;100.00;97746.94;4997202;28;20663;-80
2023/07/27 06:49:19;;;;;;;2.57;2.00;;;;;;;16.86;100.00;97737.00;4997437;28;20249;-80
2023/07/27 06:51:46;;;;;;;2.93;2.03;;;;;;;16.82;100.00;97742.09;4997671;28;20203;-81
2023/07/27 06:54:12;;;;;;;2.57;2.10;;;;;;;16.82;100.00;97744.00;4998379;28;20217;-80
2023/07/27 06:56:39;;;;;;;4.13;1.63;;;;;;;16.95;100.00;97736.22;4998509;28;20211;-80
2023/07/27 06:59:05;;;;;;;3.43;1.80;;;;;;;16.98;100.00;97749.13;4997871;28;20248;-81
2023/07/27 07:01:32;;;;;;;3.27;1.80;;;;;;;17.07;100.00;97744.03;4998603;28;20241;-81
2023/07/27 07:03:58;;;;;;;3.87;2.10;;;;;;;17.16;100.00;97747.78;4998570;28;20217;-80
2023/07/27 07:06:24;;;;;;;2.80;1.83;;;;;;;17.11;100.00;97745.09;4998126;28;20214;-80
2023/07/27 07:08:51;;;;;;;2.90;2.13;;;;;;;17.02;100.00;97736.78;4998414;28;20310;-81
2023/07/27 07:11:17;;;;;;;3.73;2.00;;;;;;;17.09;100.00;97739.16;4998612;28;20207;-80
2023/07/27 07:13:43;;;;;;;2.13;1.97;;;;;;;17.05;100.00;97741.59;4998316;28;20229;-80
2023/07/27 07:16:10;;;;;;;2.03;1.83;;;;;;;17.00;100.00;97743.47;4997732;28;20218;-80
2023/07/27 07:18:36;;;;;;;3.23;2.20;;;;;;;17.02;100.00;97733.28;4998392;28;20229;-80
2023/07/27 07:21:02;;;;;;;3.30;2.10;;;;;;;17.07;100.00;97730.59;4995310;28;20204;-75
2023/07/27 07:23:29;;;;;;;5.03;2.13;;;;;;;17.05;100.00;97736.22;4994653;28;20213;-75
2023/07/27 07:25:55;;;;;;;2.70;2.10;;;;;;;17.06;100.00;97732.47;4994323;28;20204;-75
2023/07/27 07:28:23;;;;;;;2.47;2.07;;;;;;;17.11;100.00;97728.97;4993405;28;20707;-75
2023/07/27 07:30:49;;;;;;;3.57;2.33;;;;;;;17.14;100.00;97729.25;4994085;28;20583;-75
2023/07/27 07:33:16;;;;;;;3.03;2.03;;;;;;;17.14;100.00;97723.88;4993864;28;20574;-75
2023/07/27 07:35:42;;;;;;;2.07;1.87;;;;;;;17.23;100.00;97732.22;4993910;28;20573;-75
2023/07/27 07:38:08;;;;;;;2.00;1.73;;;;;;;17.28;100.00;97722.25;4994297;28;20564;-75
2023/07/27 07:40:35;;;;;;;2.30;2.00;;;;;;;17.26;100.00;97720.91;4994267;28;20238;-75
2023/07/27 07:43:01;;;;;;;2.30;1.80;;;;;;;17.26;100.00;97711.00;4993871;28;20673;-75
2023/07/27 07:45:28;;;;;;;2.80;1.90;;;;;;;17.24;100.00;97713.13;4993971;28;20211;-75
2023/07/27 07:47:54;;;;;;;3.17;1.90;;;;;;;17.34;98.79;97706.94;4994008;28;20595;-75
2023/07/27 07:50:20;;;;;;;4.13;1.90;;;;;;;17.32;100.00;97709.91;4994200;28;20215;-75
2023/07/27 07:52:47;;;;;;;2.43;2.13;;;;;;;17.35;96.98;97714.75;4994177;28;20207;-75
2023/07/27 07:55:13;;;;;;;2.00;1.87;;;;;;;17.25;98.94;97706.69;4993916;28;20547;-75
2023/07/27 07:57:39;;;;;;;2.10;1.70;;;;;;;17.20;98.69;97714.72;4993819;28;20570;-75
2023/07/27 08:00:06;;;;;;;3.97;2.13;;;;;;;17.20;98.89;97717.41;4993652;28;20231;-75
2023/07/27 08:02:33;;;;;;;2.57;1.80;;;;;;;17.24;100.00;97712.34;4994042;28;20238;-75
2023/07/27 08:04:59;;;;;;;2.43;1.90;;;;;;;17.23;99.39;97708.03;4994001;28;20599;-75
2023/07/27 08:07:26;;;;;;;2.73;1.90;;;;;;;17.13;100.00;97705.34;4993809;28;20218;-75
2023/07/27 08:09:52;;;;;;;2.97;2.17;;;;;;;17.05;99.92;97709.38;4993678;28;20245;-75
2023/07/27 08:12:19;;;;;;;3.33;2.07;;;;;;;17.08;100.00;97698.09;4993740;28;20615;-75
2023/07/27 08:14:45;;;;;;;3.80;2.27;;;;;;;17.17;100.00;97695.66;4993971;28;20580;-75
2023/07/27 08:17:11;;;;;;;2.73;2.10;;;;;;;17.22;99.99;97693.78;4994480;28;20221;-75
2023/07/27 08:19:38;;;;;;;1.87;1.70;;;;;;;17.22;100.00;97691.09;4993843;28;20231;-75
2023/07/27 08:22:06;;;;;;;2.40;1.77;;;;;;;17.37;97.88;97691.06;4993846;28;20218;-75
2023/07/27 08:24:32;;;;;;;2.20;1.90;;;;;;;17.43;99.02;97683.84;4993836;28;20211;-75
2023/07/27 08:26:59;;;;;;;2.87;1.90;;;;;;;17.50;96.64;97687.09;4993833;28;20209;-75
2023/07/27 08:29:25;;;;;;;2.87;2.10;;;;;;;17.40;95.46;97679.84;4993579;28;20246;-75
2023/07/27 08:31:52;;;;;;;2.47;2.00;;;;;;;17.36;95.62;97681.41;4993763;28;20207;-75
2023/07/27 08:34:18;;;;;;;2.63;1.80;;;;;;;17.42;97.01;97674.19;4993748;28;20399;-75
2023/07/27 08:36:47;;;;;;;2.40;2.03;;;;;;;17.51;97.44;97676.03;4993380;28;20217;-75
2023/07/27 08:39:13;;;;;;;2.63;2.00;;;;;;;17.53;95.28;97671.22;4993225;28;20783;-75
2023/07/27 08:41:40;;;;;;;3.17;1.90;;;;;;;17.44;95.88;97670.16;4993339;28;20266;-75
2023/07/27 08:44:06;;;;;;;3.77;1.83;;;;;;;17.49;96.30;97666.63;4993648;28;20207;-75
2023/07/27 08:46:34;;;;;;;2.37;2.17;;;;;;;17.48;96.35;97671.22;4992373;28;20203;-75
2023/07/27 08:49:02;;;;;;;2.40;1.73;;;;;;;17.47;95.60;97666.91;4993404;28;20235;-75
2023/07/27 08:51:32;;;;;;;2.90;1.90;;;;;;;17.45;96.62;97665.56;4993376;28;20199;-75
2023/07/27 08:53:59;;;;;;;3.40;2.10;;;;;;;17.43;97.77;97660.50;4992101;28;20207;-75
2023/07/27 08:56:25;;;;;;;2.23;1.73;;;;;;;17.47;96.05;97660.75;4993486;28;20221;-75
2023/07/27 08:58:52;;;;;;;2.30;1.83;;;;;;;17.51;95.09;97653.75;4993389;28;20281;-75
2023/07/27 09:01:18;;;;;;;2.67;1.60;;;;;;;17.58;94.99;97640.81;4993587;28;20208;-75
2023/07/27 09:03:46;;;;;;;3.53;2.07;;;;;;;17.64;92.73;97640.53;4993594;28;20207;-75
2023/07/27 09:06:12;;;;;;;2.53;2.00;;;;;;;17.64;94.05;97643.22;4995606;28;20297;-75
2023/07/27 09:08:38;;;;;;;2.40;2.20;;;;;;;17.66;95.54;97642.94;4996956;28;20235;-75
2023/07/27 09:11:10;;;;;;;2.83;1.70;;;;;;;17.64;94.40;97648.59;4996857;28;20298;-75
2023/07/27 09:13:38;;;;;;;3.03;2.10;;;;;;;17.63;93.14;97647.00;4996787;28;20274;-75
2023/07/27 09:16:06;;;;;;;5.73;2.03;;;;;;;17.58;94.87;97630.88;4997005;28;20274;-75
2023/07/27 09:18:36;;;;;;;3.07;2.03;;;;;;;17.59;95.73;97639.72;4996788;28;20227;-75
2023/07/27 09:21:10;;;;;;;1.87;1.77;;;;;;;17.51;96.07;97645.69;4996804;28;20207;-75
2023/07/27 09:23:37;;;;;;;4.10;2.00;;;;;;;17.50;95.29;97642.19;4996816;28;20207;-75
2023/07/27 09:26:05;;;;;;;3.43;2.00;;;;;;;17.51;94.56;97646.47;4996475;28;20211;-75
2023/07/27 09:28:32;;;;;;;3.47;2.00;;;;;;;17.46;100.00;97654.56;4996349;28;20235;-75
2023/07/27 09:31:02;;;;;;;1.90;1.80;;;;;;;17.44;100.00;97661.28;4996584;28;20203;-75
2023/07/27 09:33:29;;;;;;;3.87;2.03;;;;;;;17.37;100.00;97652.69;4996552;28;20207;-75
2023/07/27 09:35:56;;;;;;;2.40;2.20;;;;;;;17.35;100.00;97652.13;4996163;28;20211;-75
2023/07/27 09:38:27;;;;;;;3.50;2.07;;;;;;;17.39;100.00;97656.72;4996033;28;20258;-75
2023/07/27 09:40:54;;;;;;;2.93;1.90;;;;;;;17.07;100.00;97653.50;4996080;28;20245;-75
2023/07/27 09:43:25;;;;;;;3.73;2.30;;;;;;;17.02;100.00;97661.56;4996142;28;20689;-75
2023/07/27 09:45:59;;;;;;;3.70;2.10;;;;;;;16.97;100.00;97650.03;4996404;28;20195;-75
2023/07/27 09:48:28;;;;;;;2.23;2.03;;;;;;;16.98;100.00;97657.81;4996138;28;20234;-75
2023/07/27 09:50:55;;;;;;;2.47;2.20;;;;;;;16.96;100.00;97651.09;4995908;28;20757;-75
2023/07/27 09:53:22;;;;;;;2.50;1.90;;;;;;;16.99;100.00;97656.72;4995801;28;20207;-75
2023/07/27 09:55:51;;;;;;;2.87;2.10;;;;;;;17.02;100.00;97640.09;4995821;28;20207;-75
2023/07/27 09:58:17;;;;;;;2.33;2.13;;;;;;;17.08;100.00;97647.06;4995551;28;20227;-75
2023/07/27 10:00:44;;;;;;;2.17;1.97;;;;;;;17.15;100.00;97633.34;4996155;28;20203;-75
2023/07/27 10:03:10;;;;;;;5.47;2.50;;;;;;;17.22;100.00;97633.88;4996151;28;20262;-75
2023/07/27 10:05:39;;;;;;;4.03;2.07;;;;;;;17.30;100.00;97633.31;4995709;28;20577;-75
2023/07/27 10:08:06;;;;;;;2.47;2.07;;;;;;;17.31;100.00;97626.88;4995895;28;20207;-75
2023/07/27 10:10:32;;;;;;;3.53;2.30;;;;;;;17.29;100.00;97629.81;4994093;28;20733;-75
2023/07/27 10:13:06;;;;;;;3.87;2.10;;;;;;;17.34;100.00;97624.47;4995723;28;20210;-75
2023/07/27 10:15:32;;;;;;;2.67;2.37;;;;;;;17.34;100.00;97624.47;4995969;28;20191;-75
2023/07/27 10:18:01;;;;;;;2.30;2.10;;;;;;;17.37;100.00;97623.91;4994594;28;20216;-75
2023/07/27 10:20:33;;;;;;;3.57;1.90;;;;;;;17.38;100.00;97630.88;4995683;28;20203;-75
2023/07/27 10:23:18;;;;;;;3.03;2.43;;;;;;;17.45;100.00;97615.31;4995652;28;20211;-75
2023/07/27 10:25:56;;;;;;;5.33;2.30;;;;;;;17.58;100.00;97609.38;4995204;28;20230;-75
2023/07/27 10:28:48;;;;;;;2.30;2.10;;;;;;;17.61;100.00;97616.91;4994867;28;20722;-75
2023/07/27 10:31:15;;;;;;;3.63;2.10;;;;;;;17.60;100.00;97617.97;4995362;28;20191;-75
2023/07/27 10:34:12;;;;;;;2.33;2.07;;;;;;;17.63;100.00;97622.78;4994754;28;20693;-75
2023/07/27 10:36:57;;;;;;;2.90;1.80;;;;;;;17.68;100.00;97608.50;4995340;28;20243;-75
2023/07/27 10:39:44;;;;;;;2.43;1.87;;;;;;;17.81;100.00;97624.06;4995065;28;20222;-73
2023/07/27 10:42:15;;;;;;;3.30;2.00;;;;;;;18.03;100.00;97617.25;4994860;28;20250;-72
2023/07/27 10:44:50;;;;;;;2.87;2.00;;;;;;;18.09;100.00;97612.66;4994505;28;20192;-72
2023/07/27 10:47:21;;;;;;;3.50;1.97;;;;;;;18.18;99.54;97606.41;4994713;28;20671;-72
2023/07/27 10:49:50;;;;;;;2.87;2.20;;;;;;;18.20;100.00;97604.25;4994853;28;20230;-74
2023/07/27 10:52:18;;;;;;;3.00;2.23;;;;;;;18.33;97.63;97594.78;4994795;28;20219;-73
2023/07/27 10:54:46;;;;;;;3.60;2.27;;;;;;;18.34;98.62;97589.13;4994896;28;20233;-74
2023/07/27 10:57:14;;;;;;;3.10;2.30;;;;;;;18.52;97.91;97590.34;4994582;28;20575;-73
2023/07/27 10:59:42;;;;;;;2.03;1.90;;;;;;;18.55;96.00;97585.19;4994709;28;20227;-73
2023/07/27 11:02:16;;;;;;;3.90;1.87;;;;;;;18.56;98.97;97584.13;4994602;28;20671;-73
2023/07/27 11:04:43;;;;;;;3.40;2.03;;;;;;;18.68;97.70;97579.16;4994472;28;20606;-73
2023/07/27 11:07:10;;;;;;;4.03;1.70;;;;;;;18.71;94.67;97578.63;4994355;28;20204;-73
2023/07/27 11:09:38;;;;;;;3.03;1.90;;;;;;;18.82;93.34;97579.34;4994033;28;20223;-73
2023/07/27 11:12:05;;;;;;;2.10;1.90;;;;;;;18.97;95.74;97577.31;4994173;28;20222;-73
2023/07/27 11:14:31;;;;;;;4.67;2.00;;;;;;;19.00;95.31;97576.72;4994189;28;20214;-73
2023/07/27 11:16:58;;;;;;;3.00;1.97;;;;;;;19.06;95.64;97572.09;4994629;28;20207;-73
2023/07/27 11:19:26;;;;;;;3.83;1.87;;;;;;;19.09;95.47;97569.63;4994507;28;20223;-73
2023/07/27 11:21:53;;;;;;;2.50;2.30;;;;;;;19.15;96.92;97565.00;4994533;28;20211;-73
2023/07/27 11:24:20;;;;;;;5.43;1.70;;;;;;;19.07;92.98;97562.94;4994333;28;20207;-73
2023/07/27 11:26:47;;;;;;;2.60;1.80;;;;;;;19.07;94.54;97561.03;4993958;28;20211;-73
2023/07/27 11:29:13;;;;;;;3.20;1.97;;;;;;;19.06;97.25;97554.06;4993724;28;20227;-73